Parkland Airport

CPL6 · 艾伯塔, 加拿大

罗盘
风向 的 风向 230° Parkland Airport 8/26
风: 9 kt, 3 beaufort

8 kt

5 kt
改变
0 5.000 10.000 15.000 20.000
BKN 15.000 ft
OVC 17.000 ft
METAR CZVL 040400Z AUTO 23009KT 9SM BKN150 OVC170 M05/M11 A2982 RMK PRESFR SLP152

METAR Parkland Airport - CPL6

Parkland Airport是,加拿大中的小机场。 该机场有一条跑道: 8/26. 该领域的国际民航组织标志是CPL6.

这份报告是针对2022年12月3日 21:00, 当地时间在Edmonton / Villeneuve Airport进行的。

机场观察

风向为230°,速度为9 kt。

可见度为9 mi。

有碎云在15.000 ft的高度 和 乌云密布在17.000 ft的高度。 破损或更高的上限为15.000 ft。

温度为-5 °C,阵风为-13 °C。 露点为-11 °C,相对湿度为63%。 海平面上的气压为29,82 inHg (QNH)。

白天

今天,太阳从08:32升起,在16:18降落。 这适用于Parkland Airport,世界夏令时可能有所不同。 当地时间与世界标准时间之间的时差为-7 小时。 当前,没有夏令时有效。

公司介绍

在这个机场,你可以找到飞行学校。 本场上唯一已知的公司是Edmonton Flying Club。

体会

到Vliegles.nl去找飞行课程,跳伞和其他飞行体验。 浏览页面,了解Parkland Airport附近所有可用的活动。 你也可以使用搜索功能来寻找你所在地附近的特定飞行课程、跳伞或其他飞行体验。

跑道

Id 标题 侧风 逆风 侧风 %
8/26 080°-260° 5 kt 8 kt 50 %

逆风成分最大的方向会被突出显示,并用于横风计算。 这并不一定意味着这个方向在使用。

乌云

15.000 ft BKN 碎云
17.000 ft OVC 乌云密布

温度 & 天气

温度 -5 °C
露点 -11 °C
相对湿度 63%
风寒 -13 °C
Kp-index 1 (0-9)

评论

PRESFR气压迅速下降
SLP152海平面压力为29,98 inHg (29,98 inHg)

白天

日出
08:33 (11:13)
中午
12:25
日落
16:17

小工具

你想在你的网站上有一个关于Parkland Airport的当前航空天气(METAR)的小部件吗?

显示HTML代码

我们和第三方通过cookies跟踪您在我们网站上的互联网行为。如果你继续,我们认为你同意我们的饼干政策